AFL223 ULLI-EFHK
Flight info
| Callsign | AFL223 |
|---|---|
| Flight time | 0h 30m |
| Altitude | 32000 |
| Route | K0769F320 UTETA1D UTETA M60 ATLUM T561 LEDUN DCT ROPAM ROPAM4B |
| Aircraft | A310/H-SDFGHIM1RTUWXY/LB1 |
Departure
| Time | 2026-04-20 18:17 |
|---|---|
| Airport | Pulkovo Airport (ULLI) |
Arrival
| Time | 2026-04-20 18:47 |
|---|---|
| Airport | Helsinki Vantaa Airport (EFHK) |
| Time | Latitude | Longitude | Altitude | Speed | Heading |
|---|---|---|---|---|---|
| 2026-04-20 18:00 | 59.80059 | 30.26809 | 87 ft | 0 kts | 105° |
| 2026-04-20 18:08 | 59.80061 | 30.26791 | 84 ft | 3 kts | 105° |
| 2026-04-20 18:08 | 59.80065 | 30.26755 | 84 ft | 3 kts | 95° |
| 2026-04-20 18:09 | 59.80064 | 30.26716 | 84 ft | 3 kts | 63° |
| 2026-04-20 18:09 | 59.80053 | 30.26685 | 87 ft | 3 kts | 37° |
| 2026-04-20 18:09 | 59.80036 | 30.26665 | 86 ft | 3 kts | 15° |
| 2026-04-20 18:09 | 59.80035 | 30.26664 | 86 ft | 0 kts | 12° |
| 2026-04-20 18:12 | 59.80040 | 30.26667 | 85 ft | 5 kts | 13° |
| 2026-04-20 18:12 | 59.80145 | 30.26722 | 83 ft | 20 kts | 17° |
| 2026-04-20 18:12 | 59.80280 | 30.26797 | 82 ft | 12 kts | 18° |
| 2026-04-20 18:12 | 59.80344 | 30.26837 | 73 ft | 10 kts | 11° |
| 2026-04-20 18:13 | 59.80411 | 30.26726 | 75 ft | 14 kts | 294° |
| 2026-04-20 18:13 | 59.80442 | 30.26530 | 72 ft | 16 kts | 288° |
| 2026-04-20 18:13 | 59.80475 | 30.26322 | 75 ft | 16 kts | 288° |
| 2026-04-20 18:13 | 59.80511 | 30.26107 | 73 ft | 17 kts | 288° |
| 2026-04-20 18:14 | 59.80544 | 30.25882 | 70 ft | 18 kts | 283° |
| 2026-04-20 18:14 | 59.80592 | 30.25551 | 68 ft | 29 kts | 286° |
| 2026-04-20 18:14 | 59.80651 | 30.25147 | 68 ft | 30 kts | 286° |
| 2026-04-20 18:14 | 59.80707 | 30.24795 | 68 ft | 23 kts | 287° |
| 2026-04-20 18:15 | 59.80791 | 30.24594 | 76 ft | 14 kts | 341° |
| 2026-04-20 18:15 | 59.80810 | 30.24585 | 71 ft | 1 kts | 348° |
| 2026-04-20 18:15 | 59.80864 | 30.24562 | 69 ft | 11 kts | 348° |
| 2026-04-20 18:15 | 59.80933 | 30.24572 | 73 ft | 8 kts | 38° |
| 2026-04-20 18:16 | 59.80945 | 30.24710 | 72 ft | 15 kts | 101° |
| 2026-04-20 18:16 | 59.80899 | 30.25045 | 75 ft | 21 kts | 106° |
| 2026-04-20 18:16 | 59.80793 | 30.25750 | 70 ft | 97 kts | 107° |
| 2026-04-20 18:16 | 59.80528 | 30.27561 | 73 ft | 173 kts | 105° |
| 2026-04-20 18:17 | 59.80138 | 30.30210 | 354 ft | 217 kts | 105° |
| 2026-04-20 18:17 | 59.79730 | 30.32949 | 1911 ft | 202 kts | 102° |
| 2026-04-20 18:17 | 59.79309 | 30.35692 | 3143 ft | 216 kts | 101° |
| 2026-04-20 18:17 | 59.78871 | 30.38565 | 3472 ft | 218 kts | 101° |
| 2026-04-20 18:18 | 59.78444 | 30.41400 | 3670 ft | 214 kts | 100° |
| 2026-04-20 18:18 | 59.78018 | 30.44187 | 3969 ft | 218 kts | 101° |
| 2026-04-20 18:18 | 59.77508 | 30.47138 | 5156 ft | 231 kts | 112° |
| 2026-04-20 18:18 | 59.76697 | 30.49918 | 6753 ft | 233 kts | 113° |
| 2026-04-20 18:19 | 59.76267 | 30.52907 | 8257 ft | 222 kts | 85° |
| 2026-04-20 18:19 | 59.76676 | 30.55730 | 9827 ft | 213 kts | 56° |
| 2026-04-20 18:19 | 59.77779 | 30.57668 | 11111 ft | 218 kts | 27° |
| 2026-04-20 18:19 | 59.79313 | 30.58204 | 12196 ft | 238 kts | 1° |
| 2026-04-20 18:20 | 59.80928 | 30.57085 | 13194 ft | 265 kts | 335° |
| 2026-04-20 18:20 | 59.82353 | 30.54561 | 14226 ft | 288 kts | 315° |
| 2026-04-20 18:20 | 59.83217 | 30.50842 | 15236 ft | 310 kts | 285° |
| 2026-04-20 18:20 | 59.83211 | 30.46473 | 16233 ft | 325 kts | 267° |
| 2026-04-20 18:21 | 59.82854 | 30.41927 | 17051 ft | 340 kts | 264° |
| 2026-04-20 18:21 | 59.82465 | 30.37188 | 17835 ft | 354 kts | 265° |
| 2026-04-20 18:21 | 59.82107 | 30.32266 | 18690 ft | 364 kts | 266° |
| 2026-04-20 18:21 | 59.81771 | 30.27235 | 19526 ft | 371 kts | 267° |
| 2026-04-20 18:22 | 59.81457 | 30.22116 | 20392 ft | 376 kts | 267° |
| 2026-04-20 18:22 | 59.81144 | 30.16911 | 21156 ft | 385 kts | 267° |
| 2026-04-20 18:22 | 59.80822 | 30.11602 | 21756 ft | 398 kts | 266° |
| 2026-04-20 18:22 | 59.80459 | 30.06081 | 22390 ft | 409 kts | 266° |
| 2026-04-20 18:23 | 59.80099 | 30.00402 | 23009 ft | 419 kts | 267° |
| 2026-04-20 18:23 | 59.79732 | 29.94575 | 23508 ft | 433 kts | 266° |
| 2026-04-20 18:23 | 59.79332 | 29.88551 | 23945 ft | 446 kts | 266° |
| 2026-04-20 18:23 | 59.78919 | 29.82365 | 24329 ft | 458 kts | 266° |
| 2026-04-20 18:24 | 59.78518 | 29.75989 | 24578 ft | 473 kts | 266° |
| 2026-04-20 18:24 | 59.78090 | 29.69408 | 24826 ft | 488 kts | 266° |
| 2026-04-20 18:24 | 59.77646 | 29.62638 | 25050 ft | 503 kts | 266° |
| 2026-04-20 18:24 | 59.77190 | 29.55663 | 25346 ft | 515 kts | 266° |
| 2026-04-20 18:25 | 59.76732 | 29.48664 | 25845 ft | 521 kts | 266° |
| 2026-04-20 18:25 | 59.76247 | 29.41550 | 26580 ft | 522 kts | 265° |
| 2026-04-20 18:25 | 59.75746 | 29.34372 | 26960 ft | 527 kts | 265° |
| 2026-04-20 18:25 | 59.75106 | 29.24927 | 27789 ft | 530 kts | 265° |
| 2026-04-20 18:26 | 59.73815 | 29.06767 | 29656 ft | 531 kts | 265° |
| 2026-04-20 18:26 | 59.73344 | 28.92278 | 31025 ft | 523 kts | 278° |
| 2026-04-20 18:26 | 59.73983 | 28.77963 | 32030 ft | 526 kts | 279° |
| 2026-04-20 18:26 | 59.74430 | 28.63650 | 32209 ft | 525 kts | 277° |
| 2026-04-20 18:27 | 59.75432 | 28.19668 | 32253 ft | 528 kts | 277° |
| 2026-04-20 18:27 | 59.76349 | 27.75004 | 32254 ft | 527 kts | 276° |
| 2026-04-20 18:28 | 59.77022 | 27.59874 | 32257 ft | 518 kts | 289° |
| 2026-04-20 18:28 | 59.79606 | 27.44092 | 32256 ft | 515 kts | 294° |
| 2026-04-20 18:28 | 59.81618 | 27.30385 | 32259 ft | 518 kts | 290° |
| 2026-04-20 18:29 | 59.83454 | 27.16651 | 32265 ft | 518 kts | 290° |
| 2026-04-20 18:29 | 59.85359 | 27.02836 | 32261 ft | 518 kts | 290° |
| 2026-04-20 18:30 | 59.87221 | 26.88995 | 32265 ft | 518 kts | 290° |
| 2026-04-20 18:30 | 59.89092 | 26.75138 | 32267 ft | 518 kts | 290° |
| 2026-04-20 18:31 | 59.90884 | 26.61225 | 32265 ft | 519 kts | 288° |
| 2026-04-20 18:31 | 59.92615 | 26.47402 | 31805 ft | 512 kts | 289° |
| 2026-04-20 18:32 | 59.93517 | 26.40496 | 30486 ft | 518 kts | 290° |
| 2026-04-20 18:32 | 59.94449 | 26.33542 | 29171 ft | 520 kts | 290° |
| 2026-04-20 18:32 | 59.95376 | 26.26562 | 27880 ft | 520 kts | 289° |
| 2026-04-20 18:32 | 59.96297 | 26.19574 | 26548 ft | 522 kts | 289° |
| 2026-04-20 18:33 | 59.97191 | 26.12589 | 25695 ft | 514 kts | 289° |
| 2026-04-20 18:33 | 59.98062 | 26.05729 | 24728 ft | 508 kts | 288° |
| 2026-04-20 18:33 | 59.98925 | 25.98952 | 23887 ft | 500 kts | 288° |
| 2026-04-20 18:33 | 59.99769 | 25.92344 | 22811 ft | 494 kts | 288° |
| 2026-04-20 18:34 | 60.00680 | 25.85257 | 21775 ft | 485 kts | 288° |
| 2026-04-20 18:34 | 60.01489 | 25.78995 | 20852 ft | 477 kts | 288° |
| 2026-04-20 18:34 | 60.02302 | 25.72615 | 19923 ft | 470 kts | 288° |
| 2026-04-20 18:34 | 60.03079 | 25.66319 | 19008 ft | 462 kts | 287° |
| 2026-04-20 18:35 | 60.03841 | 25.60124 | 18046 ft | 455 kts | 287° |
| 2026-04-20 18:35 | 60.04595 | 25.54015 | 17036 ft | 448 kts | 287° |
| 2026-04-20 18:35 | 60.05338 | 25.48007 | 16042 ft | 441 kts | 287° |
| 2026-04-20 18:35 | 60.06060 | 25.42165 | 15089 ft | 435 kts | 287° |
| 2026-04-20 18:36 | 60.06782 | 25.36339 | 14376 ft | 424 kts | 287° |
| 2026-04-20 18:36 | 60.07458 | 25.30816 | 14344 ft | 391 kts | 287° |
| 2026-04-20 18:36 | 60.08080 | 25.25742 | 14316 ft | 361 kts | 288° |
| 2026-04-20 18:36 | 60.08665 | 25.21044 | 14248 ft | 336 kts | 288° |
| 2026-04-20 18:37 | 60.09210 | 25.16612 | 14024 ft | 319 kts | 288° |
| 2026-04-20 18:37 | 60.09720 | 25.12405 | 13865 ft | 302 kts | 288° |
| 2026-04-20 18:37 | 60.10192 | 25.08430 | 13723 ft | 286 kts | 288° |
| 2026-04-20 18:37 | 60.10647 | 25.04572 | 13278 ft | 283 kts | 288° |
| 2026-04-20 18:38 | 60.11089 | 25.00745 | 12801 ft | 281 kts | 284° |
| 2026-04-20 18:38 | 60.11074 | 24.96867 | 12346 ft | 285 kts | 264° |
| 2026-04-20 18:38 | 60.10704 | 24.92968 | 11883 ft | 284 kts | 261° |
| 2026-04-20 18:38 | 60.10298 | 24.89110 | 11449 ft | 281 kts | 261° |
| 2026-04-20 18:39 | 60.09892 | 24.85289 | 11010 ft | 279 kts | 261° |
| 2026-04-20 18:39 | 60.09491 | 24.81504 | 10584 ft | 277 kts | 261° |
| 2026-04-20 18:39 | 60.09093 | 24.77742 | 10156 ft | 275 kts | 261° |
| 2026-04-20 18:39 | 60.08696 | 24.74018 | 9686 ft | 272 kts | 259° |
| 2026-04-20 18:40 | 60.08279 | 24.70337 | 9222 ft | 269 kts | 261° |
| 2026-04-20 18:40 | 60.08031 | 24.66669 | 8769 ft | 261 kts | 279° |
| 2026-04-20 18:40 | 60.08565 | 24.63326 | 8309 ft | 248 kts | 309° |
| 2026-04-20 18:40 | 60.09665 | 24.60789 | 7783 ft | 243 kts | 320° |
| 2026-04-20 18:41 | 60.10865 | 24.58422 | 7286 ft | 241 kts | 321° |
| 2026-04-20 18:41 | 60.12101 | 24.56210 | 6763 ft | 234 kts | 334° |
| 2026-04-20 18:41 | 60.13601 | 24.55344 | 6214 ft | 222 kts | 5° |
| 2026-04-20 18:41 | 60.15062 | 24.56114 | 5609 ft | 217 kts | 33° |
| 2026-04-20 18:42 | 60.16277 | 24.57873 | 5048 ft | 216 kts | 38° |
| 2026-04-20 18:42 | 60.17398 | 24.59859 | 4488 ft | 214 kts | 47° |
| 2026-04-20 18:42 | 60.18378 | 24.62087 | 3952 ft | 212 kts | 47° |
| 2026-04-20 18:42 | 60.19349 | 24.64228 | 3660 ft | 199 kts | 46° |
| 2026-04-20 18:43 | 60.20269 | 24.66233 | 3243 ft | 191 kts | 46° |
| 2026-04-20 18:43 | 60.21123 | 24.68096 | 3028 ft | 176 kts | 46° |
| 2026-04-20 18:43 | 60.21963 | 24.69933 | 2819 ft | 179 kts | 46° |
| 2026-04-20 18:43 | 60.22794 | 24.71748 | 2579 ft | 177 kts | 46° |
| 2026-04-20 18:44 | 60.23633 | 24.73585 | 2346 ft | 177 kts | 46° |
| 2026-04-20 18:44 | 60.24449 | 24.75371 | 2156 ft | 177 kts | 46° |
| 2026-04-20 18:44 | 60.25284 | 24.77199 | 1886 ft | 175 kts | 46° |
| 2026-04-20 18:44 | 60.26114 | 24.79017 | 1643 ft | 176 kts | 46° |
| 2026-04-20 18:45 | 60.26943 | 24.80833 | 1417 ft | 177 kts | 46° |
| 2026-04-20 18:45 | 60.27761 | 24.82629 | 1156 ft | 167 kts | 46° |
| 2026-04-20 18:45 | 60.28504 | 24.84260 | 958 ft | 149 kts | 46° |
| 2026-04-20 18:45 | 60.29161 | 24.85702 | 778 ft | 134 kts | 46° |
| 2026-04-20 18:46 | 60.29791 | 24.87084 | 601 ft | 133 kts | 46° |
| 2026-04-20 18:46 | 60.30414 | 24.88447 | 426 ft | 130 kts | 46° |
| 2026-04-20 18:46 | 60.31026 | 24.89796 | 256 ft | 131 kts | 46° |
| 2026-04-20 18:46 | 60.31637 | 24.91135 | 157 ft | 119 kts | 47° |
| 2026-04-20 18:47 | 60.32088 | 24.92128 | 169 ft | 81 kts | 46° |
| 2026-04-20 18:47 | 60.32379 | 24.92800 | 175 ft | 47 kts | 60° |
| 2026-04-20 18:47 | 60.32474 | 24.93348 | 181 ft | 31 kts | 76° |
| 2026-04-20 18:47 | 60.32483 | 24.93423 | 181 ft | 0 kts | 77° |
| 2026-04-20 18:49 | 60.32483 | 24.93427 | 181 ft | 3 kts | 77° |
| 2026-04-20 18:49 | 60.32496 | 24.93545 | 182 ft | 10 kts | 79° |
| 2026-04-20 18:49 | 60.32514 | 24.93723 | 183 ft | 18 kts | 77° |
| 2026-04-20 18:49 | 60.32562 | 24.93970 | 191 ft | 20 kts | 54° |
| 2026-04-20 18:50 | 60.32652 | 24.94176 | 188 ft | 19 kts | 44° |
| 2026-04-20 18:50 | 60.32742 | 24.94362 | 192 ft | 18 kts | 46° |
| 2026-04-20 18:50 | 60.32827 | 24.94549 | 200 ft | 18 kts | 46° |
| 2026-04-20 18:50 | 60.32911 | 24.94741 | 195 ft | 20 kts | 55° |
| 2026-04-20 18:51 | 60.32875 | 24.94933 | 197 ft | 18 kts | 155° |
| 2026-04-20 18:51 | 60.32723 | 24.95028 | 183 ft | 30 kts | 162° |
| 2026-04-20 18:51 | 60.32504 | 24.95177 | 176 ft | 34 kts | 164° |
| 2026-04-20 18:51 | 60.32331 | 24.95298 | 172 ft | 18 kts | 153° |
| 2026-04-20 18:52 | 60.32236 | 24.95451 | 170 ft | 18 kts | 137° |
| 2026-04-20 18:52 | 60.32141 | 24.95632 | 169 ft | 19 kts | 138° |
| 2026-04-20 18:52 | 60.32047 | 24.95804 | 170 ft | 16 kts | 137° |
| 2026-04-20 18:52 | 60.31958 | 24.95949 | 169 ft | 17 kts | 156° |
| 2026-04-20 18:53 | 60.31899 | 24.95901 | 169 ft | 10 kts | 229° |
| 2026-04-20 18:53 | 60.31797 | 24.95674 | 169 ft | 33 kts | 227° |
| 2026-04-20 18:53 | 60.31644 | 24.95336 | 169 ft | 30 kts | 226° |
| 2026-04-20 18:53 | 60.31515 | 24.95059 | 169 ft | 23 kts | 227° |
| 2026-04-20 18:54 | 60.31420 | 24.95044 | 169 ft | 17 kts | 140° |
| 2026-04-20 18:54 | 60.31309 | 24.95249 | 169 ft | 26 kts | 140° |
| 2026-04-20 18:54 | 60.31171 | 24.95540 | 169 ft | 27 kts | 109° |
| 2026-04-20 18:54 | 60.31244 | 24.95789 | 169 ft | 21 kts | 44° |
| 2026-04-20 18:55 | 60.31282 | 24.95824 | 169 ft | 3 kts | 343° |
| 2026-04-20 18:55 | 60.31310 | 24.95781 | 169 ft | 9 kts | 319° |
| 2026-04-20 18:55 | 60.31337 | 24.95732 | 169 ft | 0 kts | 319° |